Time;durP1;ratioP1;P1;durP2;ratioP2;P2;SDS_P1;SDS_P2;PMS_P1;PMS_P2;Temp;Humidity;BMP_temperature;BMP_pressure;BME280_temperature;BME280_humidity;BME280_pressure;Samples;Min_cycle;Max_cycle;Signal;HPM_P1;HPM_P2
2023/10/31 00:01:35;;;;;;;;;;;;;;;8.82;90.69;99879.54;106483;1261;73193;-89
2023/10/31 00:04:01;;;;;;;;;;;;;;;8.87;90.53;99878.59;106329;1259;125078;-88
2023/10/31 00:06:28;;;;;;;;;;;;;;;8.90;90.43;99876.91;106300;1257;61285;-88
2023/10/31 00:08:55;;;;;;;;;;;;;;;8.94;90.41;99871.71;106282;1259;73409;-88
2023/10/31 00:11:21;;;;;;;;;;;;;;;8.96;90.25;99869.48;106295;1258;125189;-90
2023/10/31 00:13:48;;;;;;;;;;;;;;;8.95;90.15;99866.84;106341;1258;71650;-88
2023/10/31 00:16:14;;;;;;;;;;;;;;;8.94;89.96;99861.56;106198;1257;124561;-88
2023/10/31 00:18:41;;;;;;;;;;;;;;;8.98;90.10;99862.52;106439;1257;61393;-88
2023/10/31 00:21:08;;;;;;;;;;;;;;;9.03;90.16;99855.06;106269;1258;73861;-87
2023/10/31 00:23:34;;;;;;;;;;;;;;;9.05;90.10;99849.69;106269;1258;124471;-89
2023/10/31 00:26:01;;;;;;;;;;;;;;;9.07;89.93;99830.46;106526;1262;72513;-88
2023/10/31 00:28:27;;;;;;;;;;;;;;;9.06;89.74;99825.72;106376;1256;125518;-89
2023/10/31 00:30:55;;;;;;;;;;;;;;;9.04;89.75;99816.23;106510;1263;61140;-89
2023/10/31 00:33:21;;;;;;;;;;;;;;;9.03;89.75;99808.00;106415;1257;74927;-90
2023/10/31 00:35:48;;;;;;;;;;;;;;;9.06;89.90;99809.27;106324;1262;124266;-90
2023/10/31 00:38:15;;;;;;;;;;;;;;;9.08;89.91;99804.74;106316;1258;61298;-90
2023/10/31 00:40:41;;;;;;;;;;;;;;;9.09;90.02;99797.60;106247;1257;124936;-90
2023/10/31 00:43:08;;;;;;;;;;;;;;;9.12;89.92;99794.66;106326;1258;60620;-90
2023/10/31 00:45:35;;;;;;;;;;;;;;;9.14;89.94;99791.19;106426;1257;125292;-89
2023/10/31 00:48:01;;;;;;;;;;;;;;;9.16;89.92;99783.86;106339;1262;65498;-90
2023/10/31 00:50:28;;;;;;;;;;;;;;;9.13;89.97;99778.58;106320;1259;61176;-89
2023/10/31 00:52:55;;;;;;;;;;;;;;;9.16;90.03;99783.34;106316;1259;124531;-89
2023/10/31 00:55:22;;;;;;;;;;;;;;;9.20;90.12;99782.35;106415;1258;61249;-89
2023/10/31 00:57:48;;;;;;;;;;;;;;;9.22;90.13;99779.58;106365;1257;124650;-89
2023/10/31 01:00:15;;;;;;;;;;;;;;;9.24;90.24;99776.11;106370;1258;66252;-89
2023/10/31 01:02:42;;;;;;;;;;;;;;;9.26;90.07;99773.86;106247;1261;72761;-89
2023/10/31 01:05:08;;;;;;;;;;;;;;;9.28;90.09;99774.42;106230;1263;124582;-88
2023/10/31 01:07:35;;;;;;;;;;;;;;;9.31;89.99;99770.08;106369;1258;61345;-89
2023/10/31 01:10:02;;;;;;;;;;;;;;;9.32;90.01;99760.13;106279;1259;124550;-89
2023/10/31 01:12:29;;;;;;;;;;;;;;;9.34;89.91;99759.09;106248;1263;64972;-89
2023/10/31 01:14:55;;;;;;;;;;;;;;;9.35;89.84;99754.91;106391;1257;72838;-92
2023/10/31 01:17:22;;;;;;;;;;;;;;;9.34;89.78;99748.42;106351;1264;124829;-89
2023/10/31 01:19:48;;;;;;;;;;;;;;;9.33;89.69;99744.22;106419;1257;61297;-89
2023/10/31 01:22:15;;;;;;;;;;;;;;;9.33;89.64;99737.02;106247;1258;124493;-88
2023/10/31 01:24:41;;;;;;;;;;;;;;;9.32;89.74;99727.38;106260;1258;66948;-89
2023/10/31 01:27:08;;;;;;;;;;;;;;;9.30;89.55;99718.78;106272;1263;72360;-89
2023/10/31 01:29:35;;;;;;;;;;;;;;;9.27;89.70;99712.08;106300;1259;124555;-89
2023/10/31 01:32:01;;;;;;;;;;;;;;;9.28;89.70;99709.64;106419;1257;61315;-90
2023/10/31 01:34:28;;;;;;;;;;;;;;;9.26;89.69;99706.30;106135;1264;125597;-89
2023/10/31 01:36:55;;;;;;;;;;;;;;;9.25;89.79;99712.59;106381;1261;66348;-92
2023/10/31 01:39:21;;;;;;;;;;;;;;;9.26;89.87;99709.09;106314;1258;71469;-91
2023/10/31 01:41:48;;;;;;;;;;;;;;;9.28;89.92;99706.31;106161;1257;125116;-91
2023/10/31 01:44:15;;;;;;;;;;;;;;;9.31;89.97;99701.29;106546;1262;61234;-91
2023/10/31 01:46:41;;;;;;;;;;;;;;;9.33;89.93;99697.11;106449;1262;125153;-89
2023/10/31 01:49:08;;;;;;;;;;;;;;;9.34;89.82;99698.70;106434;1257;70927;-89
2023/10/31 01:51:34;;;;;;;;;;;;;;;9.34;89.83;99690.64;106343;1261;127233;-90
2023/10/31 01:54:01;;;;;;;;;;;;;;;9.33;89.83;99688.88;106415;1258;61297;-89
2023/10/31 01:56:27;;;;;;;;;;;;;;;9.31;89.76;99683.43;106452;1257;61261;-90
2023/10/31 01:58:54;;;;;;;;;;;;;;;9.28;89.63;99669.73;106176;1260;124701;-90
2023/10/31 02:01:21;;;;;;;;;;;;;;;9.24;89.53;99661.27;106329;1257;66086;-90
2023/10/31 02:03:48;;;;;;;;;;;;;;;9.17;89.57;99648.77;106344;1259;124607;-90
2023/10/31 02:06:14;;;;;;;;;;;;;;;9.13;89.65;99644.52;106398;1257;61412;-90
2023/10/31 02:08:41;;;;;;;;;;;;;;;9.09;89.63;99637.64;106418;1261;61289;-92
2023/10/31 02:11:09;;;;;;;;;;;;;;;9.04;89.67;99618.66;106309;1262;124897;-92
2023/10/31 02:13:37;;;;;;;;;;;;;;;8.99;89.81;99613.70;106383;1257;65126;-92
2023/10/31 02:16:04;;;;;;;;;;;;;;;8.96;89.82;99602.80;106333;1258;125508;-91
2023/10/31 02:18:30;;;;;;;;;;;;;;;8.93;89.99;99599.79;106356;1258;61269;-91
2023/10/31 02:20:57;;;;;;;;;;;;;;;8.90;90.10;99597.14;106265;1262;61260;-91
2023/10/31 02:23:24;;;;;;;;;;;;;;;8.88;90.17;99596.59;106315;1258;124705;-90
2023/10/31 02:25:50;;;;;;;;;;;;;;;8.87;90.26;99596.91;106321;1262;66251;-90
2023/10/31 02:28:17;;;;;;;;;;;;;;;8.88;90.57;99591.50;106318;1261;124542;-90
2023/10/31 02:30:44;;;;;;;;;;;;;;;8.89;90.74;99587.15;106339;1257;61351;-89
2023/10/31 02:33:10;;;;;;;;;;;;;;;8.90;90.76;99582.09;106350;1258;61581;-91
2023/10/31 02:35:37;;;;;;;;;;;;;;;8.90;90.79;99574.75;106291;1259;125325;-89
2023/10/31 02:38:04;;;;;;;;;;;;;;;8.89;90.64;99564.06;106358;1258;64501;-89
2023/10/31 02:40:30;;;;;;;;;;;;;;;8.87;90.81;99557.73;106291;1258;125005;-90
2023/10/31 02:42:57;;;;;;;;;;;;;;;8.86;90.89;99553.69;106382;1257;61374;-90
2023/10/31 02:45:23;;;;;;;;;;;;;;;8.86;91.04;99548.61;106354;1263;61264;-90
2023/10/31 02:47:50;;;;;;;;;;;;;;;8.87;91.17;99542.69;106283;1258;124607;-89
2023/10/31 02:50:16;;;;;;;;;;;;;;;8.90;91.35;99535.38;106482;1257;66251;-89
2023/10/31 02:52:44;;;;;;;;;;;;;;;8.97;91.49;99529.33;106394;1257;124937;-89
2023/10/31 02:55:10;;;;;;;;;;;;;;;9.03;91.56;99526.08;106469;1257;61323;-89
2023/10/31 02:57:37;;;;;;;;;;;;;;;9.04;91.51;99520.84;106415;1257;125329;-90
2023/10/31 03:00:04;;;;;;;;;;;;;;;9.06;91.47;99512.65;106482;1261;75259;-90
2023/10/31 03:02:31;;;;;;;;;;;;;;;9.09;91.48;99503.92;106307;1262;64997;-90
2023/10/31 03:04:57;;;;;;;;;;;;;;;9.12;91.52;99503.26;106228;1258;125473;-89
2023/10/31 03:07:24;;;;;;;;;;;;;;;9.14;91.50;99496.63;106211;1259;60099;-91
2023/10/31 03:09:51;;;;;;;;;;;;;;;9.15;91.42;99490.52;106262;1263;124832;-91
2023/10/31 03:12:17;;;;;;;;;;;;;;;9.16;91.44;99480.90;106427;1258;73702;-91
2023/10/31 03:14:44;;;;;;;;;;;;;;;9.19;91.46;99477.95;106457;1258;66283;-91
2023/10/31 03:17:10;;;;;;;;;;;;;;;9.19;91.42;99468.67;106301;1263;124517;-90
2023/10/31 03:19:37;;;;;;;;;;;;;;;9.20;91.51;99467.64;106337;1262;61264;-90
2023/10/31 03:22:04;;;;;;;;;;;;;;;9.20;91.44;99462.38;106250;1257;126533;-90
2023/10/31 03:24:30;;;;;;;;;;;;;;;9.22;91.65;99463.11;106328;1258;73362;-91
2023/10/31 03:26:57;;;;;;;;;;;;;;;9.25;91.64;99453.67;106365;1264;66304;-91
2023/10/31 03:29:24;;;;;;;;;;;;;;;9.27;91.68;99444.95;106162;1261;124486;-91
2023/10/31 03:31:50;;;;;;;;;;;;;;;9.30;91.66;99436.05;106378;1261;61270;-90
2023/10/31 03:34:17;;;;;;;;;;;;;;;9.32;91.71;99435.19;106371;1261;124510;-90
2023/10/31 03:36:44;;;;;;;;;;;;;;;9.32;91.61;99423.81;106440;1259;73641;-90
2023/10/31 03:39:10;;;;;;;;;;;;;;;9.32;91.64;99416.27;106402;1258;61281;-89
2023/10/31 03:41:37;;;;;;;;;;;;;;;9.34;91.69;99409.31;106279;1261;124505;-89
2023/10/31 03:44:04;;;;;;;;;;;;;;;9.37;91.82;99404.06;106412;1257;59651;-90
2023/10/31 03:46:30;;;;;;;;;;;;;;;9.41;91.86;99396.23;106350;1261;124893;-91
2023/10/31 03:48:57;;;;;;;;;;;;;;;9.44;91.83;99391.86;106415;1258;73291;-90
2023/10/31 03:51:23;;;;;;;;;;;;;;;9.46;91.91;99384.52;106562;1258;65012;-90
2023/10/31 03:53:50;;;;;;;;;;;;;;;9.49;91.88;99382.45;106319;1262;124503;-87
2023/10/31 03:56:17;;;;;;;;;;;;;;;9.51;91.96;99375.46;106376;1262;61253;-90
2023/10/31 03:58:43;;;;;;;;;;;;;;;9.55;91.90;99366.73;106305;1258;124687;-89
2023/10/31 04:01:10;;;;;;;;;;;;;;;9.58;91.81;99361.52;106239;1258;72116;-90
2023/10/31 04:03:36;;;;;;;;;;;;;;;9.59;91.78;99355.73;106172;1258;124852;-90
2023/10/31 04:06:03;;;;;;;;;;;;;;;9.62;91.82;99346.45;106146;1258;72399;-88
2023/10/31 04:08:30;;;;;;;;;;;;;;;9.65;91.78;99342.64;106319;1261;61383;-90
2023/10/31 04:10:56;;;;;;;;;;;;;;;9.67;91.83;99335.28;106282;1258;125028;-90
2023/10/31 04:13:23;;;;;;;;;;;;;;;9.71;91.84;99327.77;106532;1258;74666;-91
2023/10/31 04:15:50;;;;;;;;;;;;;;;9.71;91.80;99323.22;106563;1262;124793;-90
2023/10/31 04:18:16;;;;;;;;;;;;;;;9.74;91.81;99313.23;106346;1258;72713;-90
2023/10/31 04:20:43;;;;;;;;;;;;;;;9.76;91.80;99301.17;106609;1258;61332;-91
2023/10/31 04:23:11;;;;;;;;;;;;;;;9.77;91.68;99300.65;106483;1258;127460;-89
2023/10/31 04:25:38;;;;;;;;;;;;;;;9.77;91.71;99296.63;106446;1258;74717;-90
2023/10/31 04:28:04;;;;;;;;;;;;;;;9.78;91.81;99291.20;106290;1257;124844;-88
2023/10/31 04:30:31;;;;;;;;;;;;;;;9.80;91.63;99285.42;106374;1262;72714;-89
2023/10/31 04:32:57;;;;;;;;;;;;;;;9.82;91.75;99277.90;106313;1258;61310;-89
2023/10/31 04:35:24;;;;;;;;;;;;;;;9.83;91.72;99274.56;106400;1258;124481;-88
2023/10/31 04:37:51;;;;;;;;;;;;;;;9.85;91.87;99269.34;106246;1259;74429;-88
2023/10/31 04:40:17;;;;;;;;;;;;;;;9.90;92.01;99259.90;106408;1258;124683;-88
2023/10/31 04:42:46;;;;;;;;;;;;;;;9.92;91.84;99257.27;106325;1259;72368;-89
2023/10/31 04:45:12;;;;;;;;;;;;;;;9.96;91.90;99249.92;106481;1258;59351;-90
2023/10/31 04:47:39;;;;;;;;;;;;;;;9.99;91.86;99249.23;106386;1261;124949;-90
2023/10/31 04:50:05;;;;;;;;;;;;;;;10.02;91.75;99254.67;106550;1257;74609;-92
2023/10/31 04:52:32;;;;;;;;;;;;;;;10.04;91.71;99249.77;106971;1258;125225;-92
2023/10/31 04:54:59;;;;;;;;;;;;;;;10.04;91.49;99248.37;106344;1258;72974;-91
2023/10/31 04:57:25;;;;;;;;;;;;;;;10.06;91.65;99253.28;106312;1258;59398;-90
2023/10/31 04:59:54;;;;;;;;;;;;;;;10.09;91.57;99247.16;106315;1264;125414;-89
2023/10/31 05:02:22;;;;;;;;;;;;;;;10.10;91.53;99234.72;106546;1258;73440;-92
2023/10/31 05:04:50;;;;;;;;;;;;;;;10.10;91.44;99220.00;106310;1258;125245;-90
2023/10/31 05:07:17;;;;;;;;;;;;;;;10.11;91.21;99215.44;106314;1258;72779;-92
2023/10/31 05:09:44;;;;;;;;;;;;;;;10.07;91.04;99205.09;106335;1264;124838;-90
2023/10/31 05:12:11;;;;;;;;;;;;;;;10.05;91.18;99193.69;106351;1259;61208;-88
2023/10/31 05:14:38;;;;;;;;;;;;;;;10.04;91.17;99187.55;106298;1259;74389;-87
2023/10/31 05:17:05;;;;;;;;;;;;;;;10.05;91.28;99184.40;106208;1267;125291;-91
2023/10/31 05:19:32;;;;;;;;;;;;;;;10.06;91.32;99179.14;106349;1259;73116;-88
2023/10/31 05:21:58;;;;;;;;;;;;;;;10.06;91.33;99175.46;106181;1261;125043;-91
2023/10/31 05:24:25;;;;;;;;;;;;;;;10.07;91.40;99171.09;106174;1259;64031;-90
2023/10/31 05:26:51;;;;;;;;;;;;;;;10.10;91.44;99171.09;106323;1264;74482;-91
2023/10/31 05:29:18;;;;;;;;;;;;;;;10.13;91.42;99171.44;106163;1264;124593;-91
2023/10/31 05:31:45;;;;;;;;;;;;;;;10.14;91.42;99171.27;106278;1260;72525;-90
2023/10/31 05:34:11;;;;;;;;;;;;;;;10.17;91.39;99170.57;106331;1264;124777;-89
2023/10/31 05:36:38;;;;;;;;;;;;;;;10.17;91.19;99168.46;106411;1263;61279;-92
2023/10/31 05:39:04;;;;;;;;;;;;;;;10.18;91.10;99167.59;106415;1259;74717;-91
2023/10/31 05:44:07;;;;;;;;;;;;;;;10.18;91.09;99163.74;106694;1259;82503;-89
2023/10/31 05:46:40;;;;;;;;;;;;;;;10.19;91.13;99161.11;106369;1257;125014;-89
2023/10/31 05:49:07;;;;;;;;;;;;;;;10.22;91.12;99157.42;106447;1258;59380;-89
2023/10/31 05:51:35;;;;;;;;;;;;;;;10.25;91.21;99146.23;106258;1264;124820;-89
2023/10/31 05:54:01;;;;;;;;;;;;;;;10.29;91.23;99136.23;106284;1262;65244;-86
2023/10/31 05:56:28;;;;;;;;;;;;;;;10.32;91.17;99135.73;106098;1258;71438;-86
2023/10/31 05:58:55;;;;;;;;;;;;;;;10.34;91.03;99127.30;106112;1259;125030;-86
2023/10/31 06:01:22;;;;;;;;;;;;;;;10.36;90.92;99124.35;106107;1258;59853;-85
2023/10/31 06:03:48;;;;;;;;;;;;;;;10.37;90.88;99117.33;106236;1258;124707;-86
2023/10/31 06:06:16;;;;;;;;;;;;;;;10.37;90.83;99120.48;106147;1260;66370;-86
2023/10/31 06:08:43;;;;;;;;;;;;;;;10.39;90.83;99111.53;106284;1257;74067;-88
2023/10/31 06:11:12;;;;;;;;;;;;;;;10.41;90.83;99105.92;106099;1257;124777;-88
2023/10/31 06:13:38;;;;;;;;;;;;;;;10.44;91.00;99101.00;106291;1257;61392;-88
2023/10/31 06:16:05;;;;;;;;;;;;;;;10.48;90.99;99096.78;106097;1261;124917;-88
2023/10/31 06:18:32;;;;;;;;;;;;;;;10.52;91.00;99088.90;106097;1261;64828;-88
2023/10/31 06:20:59;;;;;;;;;;;;;;;10.57;91.08;99084.15;106028;1257;72714;-88
2023/10/31 06:23:26;;;;;;;;;;;;;;;10.61;91.11;99073.80;106077;1261;124807;-88
2023/10/31 06:25:52;;;;;;;;;;;;;;;10.66;91.02;99066.05;106339;1257;59548;-89
2023/10/31 06:28:19;;;;;;;;;;;;;;;10.67;90.92;99056.08;106293;1258;125044;-90
2023/10/31 06:30:46;;;;;;;;;;;;;;;10.72;91.06;99058.34;106315;1264;66326;-89
2023/10/31 06:33:12;;;;;;;;;;;;;;;10.78;91.14;99054.63;106356;1258;72480;-90
2023/10/31 06:35:39;;;;;;;;;;;;;;;10.84;91.06;99049.86;106007;1260;124767;-90
2023/10/31 06:38:06;;;;;;;;;;;;;;;10.89;91.02;99041.79;106419;1258;61308;-88
2023/10/31 06:40:32;;;;;;;;;;;;;;;10.94;90.90;99038.95;106176;1262;125064;-89
2023/10/31 06:42:59;;;;;;;;;;;;;;;10.98;90.90;99038.06;106184;1258;66495;-89
2023/10/31 06:45:26;;;;;;;;;;;;;;;11.02;90.79;99035.06;106185;1259;72717;-88
2023/10/31 06:47:53;;;;;;;;;;;;;;;11.06;90.86;99027.31;106335;1264;124470;-89
2023/10/31 06:50:19;;;;;;;;;;;;;;;11.12;90.78;99025.18;106412;1264;61277;-87
2023/10/31 06:52:46;;;;;;;;;;;;;;;11.12;90.39;99020.27;106426;1259;124799;-89
2023/10/31 06:55:13;;;;;;;;;;;;;;;11.09;90.37;99015.54;106373;1261;64978;-87
2023/10/31 06:57:39;;;;;;;;;;;;;;;11.09;90.42;99012.55;106467;1261;124749;-88
2023/10/31 07:00:09;;;;;;;;;;;;;;;11.11;90.45;99008.15;106458;1262;61703;-89
2023/10/31 07:02:36;;;;;;;;;;;;;;;11.14;90.53;99006.91;106565;1258;61239;-89
2023/10/31 07:05:03;;;;;;;;;;;;;;;11.17;90.57;99007.09;106248;1264;125041;-88
2023/10/31 07:07:30;;;;;;;;;;;;;;;11.22;90.70;99003.72;106547;1262;65976;-88
2023/10/31 07:09:56;;;;;;;;;;;;;;;11.26;90.56;99001.93;106293;1258;124874;-88
2023/10/31 07:12:24;;;;;;;;;;;;;;;11.26;90.35;99000.54;106262;1258;61112;-90
2023/10/31 07:14:50;;;;;;;;;;;;;;;11.29;90.37;99001.39;106181;1264;61281;-87
2023/10/31 07:17:17;;;;;;;;;;;;;;;11.32;90.49;99000.14;106135;1266;124587;-89
2023/10/31 07:19:44;;;;;;;;;;;;;;;11.36;90.42;98994.84;106468;1258;66263;-88
2023/10/31 07:22:10;;;;;;;;;;;;;;;11.39;90.48;98995.55;106278;1260;124877;-89
2023/10/31 07:24:37;;;;;;;;;;;;;;;11.42;90.34;98992.36;106429;1258;61361;-88
2023/10/31 07:27:04;;;;;;;;;;;;;;;11.44;90.35;98988.83;106361;1258;61132;-88
2023/10/31 07:29:30;;;;;;;;;;;;;;;11.47;90.39;98983.71;106293;1258;125073;-88
2023/10/31 07:31:57;;;;;;;;;;;;;;;11.46;90.21;98979.67;106417;1262;66554;-88
2023/10/31 07:34:23;;;;;;;;;;;;;;;11.46;90.09;98974.93;106292;1258;124727;-89
2023/10/31 07:36:50;;;;;;;;;;;;;;;11.47;90.16;98967.37;106360;1258;61231;-88
2023/10/31 07:39:17;;;;;;;;;;;;;;;11.50;90.30;98962.09;106295;1258;61249;-87
2023/10/31 07:41:44;;;;;;;;;;;;;;;11.56;90.39;98960.11;106156;1258;123735;-89
2023/10/31 07:44:11;;;;;;;;;;;;;;;11.61;90.36;98954.80;106254;1258;66462;-89
2023/10/31 07:46:38;;;;;;;;;;;;;;;11.65;90.31;98947.38;106368;1260;124982;-88
2023/10/31 07:49:04;;;;;;;;;;;;;;;11.67;90.10;98945.08;106573;1259;60122;-87
2023/10/31 07:51:31;;;;;;;;;;;;;;;11.69;90.17;98944.36;106349;1263;124750;-89
2023/10/31 07:53:58;;;;;;;;;;;;;;;11.72;90.07;98947.14;106312;1259;74710;-89
2023/10/31 07:56:25;;;;;;;;;;;;;;;11.72;90.04;98940.83;106425;1258;65263;-90
2023/10/31 07:58:52;;;;;;;;;;;;;;;11.75;90.10;98937.98;106195;1259;124548;-89
2023/10/31 08:01:19;;;;;;;;;;;;;;;11.80;90.10;98935.84;106384;1259;62081;-89
2023/10/31 08:03:46;;;;;;;;;;;;;;;11.84;90.18;98930.88;106362;1258;125422;-87
2023/10/31 08:06:13;;;;;;;;;;;;;;;11.89;90.12;98930.85;106377;1259;73504;-89
2023/10/31 08:08:40;;;;;;;;;;;;;;;11.95;90.14;98926.77;106543;1262;63911;-88
2023/10/31 08:11:10;;;;;;;;;;;;;;;11.98;90.15;98922.16;106540;1260;124923;-88
2023/10/31 08:13:37;;;;;;;;;;;;;;;12.06;90.31;98919.98;106392;1258;59788;-88
2023/10/31 08:16:04;;;;;;;;;;;;;;;12.11;90.35;98911.84;106240;1259;124986;-89
2023/10/31 08:18:31;;;;;;;;;;;;;;;12.16;90.31;98902.81;106058;1258;74710;-89
2023/10/31 08:20:58;;;;;;;;;;;;;;;12.19;90.20;98895.92;106387;1258;64981;-88
2023/10/31 08:23:24;;;;;;;;;;;;;;;12.23;90.25;98889.38;106152;1259;126426;-89
2023/10/31 08:25:51;;;;;;;;;;;;;;;12.30;90.33;98890.35;106457;1258;61208;-89
2023/10/31 08:28:18;;;;;;;;;;;;;;;12.33;90.04;98880.82;106253;1258;124788;-89
2023/10/31 08:30:45;;;;;;;;;;;;;;;12.34;90.05;98878.48;106383;1258;74782;-88
2023/10/31 08:33:11;;;;;;;;;;;;;;;12.34;89.95;98873.40;106581;1258;65075;-89
2023/10/31 08:35:38;;;;;;;;;;;;;;;12.37;90.19;98865.80;106189;1259;124731;-88
2023/10/31 08:38:04;;;;;;;;;;;;;;;12.42;90.14;98861.33;106478;1263;61204;-89
2023/10/31 08:40:31;;;;;;;;;;;;;;;12.50;90.38;98857.19;106358;1258;123689;-89
2023/10/31 08:42:58;;;;;;;;;;;;;;;12.56;90.27;98852.38;106343;1258;73485;-89
2023/10/31 08:45:24;;;;;;;;;;;;;;;12.60;90.10;98853.36;106323;1258;66285;-88
2023/10/31 08:47:51;;;;;;;;;;;;;;;12.62;90.05;98854.40;106137;1259;124396;-88
2023/10/31 08:50:18;;;;;;;;;;;;;;;12.65;90.04;98850.85;106304;1258;61283;-89
2023/10/31 08:52:44;;;;;;;;;;;;;;;12.68;90.04;98849.22;106290;1259;124585;-88
2023/10/31 08:55:11;;;;;;;;;;;;;;;12.69;89.93;98847.61;106122;1258;74679;-88
2023/10/31 08:57:38;;;;;;;;;;;;;;;12.72;89.88;98852.15;106199;1258;124794;-87
2023/10/31 09:00:05;;;;;;;;;;;;;;;12.72;89.81;98853.02;106356;1258;71481;-88
2023/10/31 09:02:31;;;;;;;;;;;;;;;12.72;89.81;98849.67;106285;1258;61341;-89
2023/10/31 09:04:58;;;;;;;;;;;;;;;12.75;89.88;98844.36;106553;1257;126033;-89
2023/10/31 09:07:24;;;;;;;;;;;;;;;12.77;89.80;98841.52;106476;1258;74995;-90
2023/10/31 09:09:51;;;;;;;;;;;;;;;12.77;89.77;98837.99;106297;1261;126784;-82
2023/10/31 09:12:17;;;;;;;;;;;;;;;12.77;89.79;98842.57;106328;1261;71410;-82
2023/10/31 09:14:45;;;;;;;;;;;;;;;12.77;89.80;98841.34;106408;1263;61257;-83
2023/10/31 09:17:12;;;;;;;;;;;;;;;12.76;89.77;98840.13;106277;1258;124915;-82
2023/10/31 09:19:38;;;;;;;;;;;;;;;12.74;89.95;98841.36;106357;1261;73470;-83
2023/10/31 09:22:05;;;;;;;;;;;;;;;12.74;89.94;98836.98;105992;1263;125040;-83
2023/10/31 09:24:33;;;;;;;;;;;;;;;12.76;90.09;98837.48;106338;1261;71703;-83
2023/10/31 09:26:59;;;;;;;;;;;;;;;12.78;90.04;98836.92;106375;1258;61369;-83
2023/10/31 09:29:27;;;;;;;;;;;;;;;12.79;90.20;98835.14;106336;1258;125275;-83
2023/10/31 09:31:54;;;;;;;;;;;;;;;12.82;90.22;98831.58;106352;1258;73383;-83
2023/10/31 09:34:20;;;;;;;;;;;;;;;12.83;90.21;98825.77;106152;1258;124665;-81
2023/10/31 09:36:47;;;;;;;;;;;;;;;12.85;90.31;98823.27;106259;1258;73732;-83
2023/10/31 09:39:13;;;;;;;;;;;;;;;12.90;90.47;98824.79;106366;1265;61183;-82
2023/10/31 09:41:40;;;;;;;;;;;;;;;12.94;90.63;98826.82;106240;1258;125583;-83
2023/10/31 09:44:07;;;;;;;;;;;;;;;12.97;90.72;98824.48;106307;1260;74719;-82
2023/10/31 09:46:33;;;;;;;;;;;;;;;13.00;90.72;98821.09;106184;1258;124633;-83
2023/10/31 09:49:00;;;;;;;;;;;;;;;13.04;90.94;98819.63;106396;1259;72721;-83
2023/10/31 09:51:27;;;;;;;;;;;;;;;13.12;91.16;98823.02;106308;1258;61313;-83
2023/10/31 09:53:54;;;;;;;;;;;;;;;13.22;91.42;98819.67;106208;1263;124386;-82
2023/10/31 09:56:21;;;;;;;;;;;;;;;13.33;91.49;98817.76;106278;1258;74838;-83
2023/10/31 09:58:47;;;;;;;;;;;;;;;13.43;91.51;98815.31;106229;1259;124798;-83
2023/10/31 10:01:14;;;;;;;;;;;;;;;13.50;91.46;98816.06;106456;1262;72546;-83
2023/10/31 10:03:41;;;;;;;;;;;;;;;13.53;91.29;98807.73;106219;1258;125585;-82
2023/10/31 10:06:08;;;;;;;;;;;;;;;13.56;91.29;98807.84;106215;1258;61250;-84
2023/10/31 10:08:36;;;;;;;;;;;;;;;13.59;91.23;98808.84;106336;1263;73790;-83
2023/10/31 10:11:03;;;;;;;;;;;;;;;13.62;91.34;98808.95;106279;1263;124794;-82
2023/10/31 10:13:30;;;;;;;;;;;;;;;13.66;91.32;98802.21;106194;1258;71413;-82
2023/10/31 10:15:56;;;;;;;;;;;;;;;13.68;91.38;98797.06;106116;1264;124880;-82
2023/10/31 10:18:29;;;;;;;;;;;;;;;13.71;91.46;98799.81;106207;1260;61139;-82
2023/10/31 10:20:57;;;;;;;;;;;;;;;13.76;91.59;98795.67;106385;1260;74456;-81
2023/10/31 10:23:24;;;;;;;;;;;;;;;13.81;91.66;98798.58;106240;1258;125530;-82
2023/10/31 10:25:51;;;;;;;;;;;;;;;13.86;91.56;98799.34;106345;1262;72873;-82
2023/10/31 10:28:21;;;;;;;;;;;;;;;13.91;91.58;98798.73;106219;1260;124861;-82
2023/10/31 10:30:48;;;;;;;;;;;;;;;13.96;91.74;98800.39;106294;1258;62406;-82
2023/10/31 10:33:15;;;;;;;;;;;;;;;14.00;91.70;98797.66;106375;1258;74774;-82
2023/10/31 10:35:41;;;;;;;;;;;;;;;14.05;91.71;98796.50;106361;1259;125547;-82
2023/10/31 10:38:14;;;;;;;;;;;;;;;14.11;91.71;98792.15;106306;1264;72702;-82
2023/10/31 10:40:50;;;;;;;;;;;;;;;14.17;91.77;98791.67;106213;1258;124813;-82
2023/10/31 10:43:24;;;;;;;;;;;;;;;14.24;91.88;98789.92;106141;1261;61256;-82
2023/10/31 10:45:57;;;;;;;;;;;;;;;14.37;92.01;98790.02;106385;1258;124899;-81
2023/10/31 10:48:24;;;;;;;;;;;;;;;14.47;91.94;98787.33;106315;1258;67184;-83
2023/10/31 10:51:05;;;;;;;;;;;;;;;14.52;91.75;98790.04;106407;1258;72751;-82
2023/10/31 10:53:35;;;;;;;;;;;;;;;14.54;91.45;98784.68;106146;1257;124945;-82
2023/10/31 10:56:03;;;;;;;;;;;;;;;14.54;91.39;98788.58;106229;1258;59962;-82
2023/10/31 10:58:30;;;;;;;;;;;;;;;14.52;91.23;98794.42;106205;1258;125723;-82
2023/10/31 11:00:58;;;;;;;;;;;;;;;14.54;91.38;98796.33;106234;1259;64767;-82
2023/10/31 11:03:25;;;;;;;;;;;;;;;14.56;91.31;98794.38;106181;1263;72468;-82
2023/10/31 11:05:52;;;;;;;;;;;;;;;14.59;91.39;98799.96;106164;1258;127442;-82
2023/10/31 11:08:20;;;;;;;;;;;;;;;14.61;91.36;98794.82;106292;1258;61247;-82
2023/10/31 11:10:46;;;;;;;;;;;;;;;14.67;91.48;98792.39;106215;1259;125268;-82
2023/10/31 11:13:13;;;;;;;;;;;;;;;14.72;91.44;98782.90;106336;1258;65387;-82
2023/10/31 11:15:40;;;;;;;;;;;;;;;14.84;91.57;98777.16;106192;1258;125433;-82
2023/10/31 11:18:07;;;;;;;;;;;;;;;15.00;91.78;98780.11;106309;1258;61257;-82
2023/10/31 11:20:33;;;;;;;;;;;;;;;15.26;92.19;98777.70;106343;1261;61283;-82
2023/10/31 11:23:04;;;;;;;;;;;;;;;15.54;92.11;98778.02;106221;1259;124783;-82
2023/10/31 11:25:31;;;;;;;;;;;;;;;15.80;91.88;98776.63;106377;1259;65008;-82
2023/10/31 11:27:57;;;;;;;;;;;;;;;15.99;91.42;98774.84;106286;1258;125304;-81
2023/10/31 11:30:24;;;;;;;;;;;;;;;16.07;90.69;98779.95;106419;1258;61345;-82
2023/10/31 11:33:01;;;;;;;;;;;;;;;16.05;90.12;98783.70;106518;1257;61190;-82
2023/10/31 11:35:30;;;;;;;;;;;;;;;16.02;89.60;98791.75;106267;1258;124809;-81
2023/10/31 11:38:01;;;;;;;;;;;;;;;15.92;89.05;98791.88;106234;1258;66689;-82
2023/10/31 11:40:28;;;;;;;;;;;;;;;15.83;89.09;98795.65;106421;1262;126540;-82
2023/10/31 11:42:58;;;;;;;;;;;;;;;15.80;89.00;98798.59;106471;1259;61463;-82
2023/10/31 11:45:25;;;;;;;;;;;;;;;15.78;89.05;98801.99;106568;1258;61300;-82
2023/10/31 11:47:52;;;;;;;;;;;;;;;15.78;88.95;98799.52;106311;1262;124714;-83
2023/10/31 11:50:18;;;;;;;;;;;;;;;15.74;88.73;98795.38;106322;1258;64768;-83
2023/10/31 11:52:45;;;;;;;;;;;;;;;15.72;88.72;98797.68;106214;1258;124667;-82
2023/10/31 11:55:12;;;;;;;;;;;;;;;15.72;88.80;98805.13;106211;1259;61323;-82
2023/10/31 11:57:39;;;;;;;;;;;;;;;15.71;88.67;98811.14;106177;1259;124897;-82
2023/10/31 12:00:07;;;;;;;;;;;;;;;15.69;88.51;98806.98;106188;1263;74876;-82
2023/10/31 12:02:33;;;;;;;;;;;;;;;15.62;88.21;98807.52;106409;1260;65014;-82
2023/10/31 12:05:07;;;;;;;;;;;;;;;15.50;88.01;98807.98;106189;1258;124603;-82
2023/10/31 12:07:43;;;;;;;;;;;;;;;15.40;87.89;98811.80;106270;1264;61305;-81
2023/10/31 12:10:10;;;;;;;;;;;;;;;15.31;88.01;98816.98;106308;1260;125314;-81
2023/10/31 12:12:37;;;;;;;;;;;;;;;15.23;87.98;98821.25;106313;1259;73897;-82
2023/10/31 12:15:04;;;;;;;;;;;;;;;15.15;87.98;98825.15;106210;1261;67071;-82
2023/10/31 12:17:31;;;;;;;;;;;;;;;15.09;87.92;98827.94;106252;1262;125110;-84
2023/10/31 12:19:58;;;;;;;;;;;;;;;15.08;87.98;98832.92;106301;1257;61218;-82
2023/10/31 12:22:24;;;;;;;;;;;;;;;15.06;88.13;98838.77;106273;1258;124552;-82
2023/10/31 12:24:51;;;;;;;;;;;;;;;15.05;88.05;98845.18;106328;1265;74612;-81
2023/10/31 12:27:18;;;;;;;;;;;;;;;15.00;88.01;98854.82;106290;1258;66339;-82
2023/10/31 12:29:44;;;;;;;;;;;;;;;14.95;87.81;98851.23;106125;1264;124906;-83
2023/10/31 12:32:11;;;;;;;;;;;;;;;14.92;87.77;98854.65;106354;1263;61364;-82
2023/10/31 12:34:43;;;;;;;;;;;;;;;14.90;87.78;98859.11;106306;1262;124761;-81
2023/10/31 12:37:10;;;;;;;;;;;;;;;14.88;87.70;98872.05;106278;1258;74737;-82